Share

Allendale, MO

Bethany (KMOBETHA2) Elev 1017 ft | 40.33 °N, 94.03 °W | Change Station

Current weather conditions updated 1 second ago

Rain
Rain
59.9 °F
Feels Like 59.9 °F
N
1.0
Wind Variable Wind from WSW
Gusts 4.0 mph
Sunrise 6:29 AM
Sunset 8:02 PM
Moon Waning Gibbous

Today is forecast to be Cooler than yesterday. Showers and thunderstorms.

Pressure 29.94 in
Visibility 7.0 miles
Clouds Few 4600 ft
Overcast 9500 ft
Dew Point 58 °F
Humidity 95%
Rainfall 0.07 in
Snow Depth Not available.
UV 0 out of 16
Pollen 5.90 out of 12
Air Quality Not available.
Flu Activity Sporadic
METAR KLWD 211153Z AUTO 22010KT 7SM FEW046 OVC095 16/13 A2995 RMK AO2 RAE1058 SLP137 P0000 60000 T01610133 10178 20156 56004

More Conditions Fewer Conditions

Pressure 29.94 in
Visibility 7.0 miles
Clouds Few 4600 ft
Overcast 9500 ft
Dew Point 58 °F
Humidity 95%
Rainfall 0.07 in
Snow Depth Not available.
UV 0 out of 16
Pollen 5.90 out of 12
Air Quality Not available.
Flu Activity Sporadic
METAR KLWD 211153Z AUTO 22010KT 7SM FEW046 OVC095 16/13 A2995 RMK AO2 RAE1058 SLP137 P0000 60000 T01610133 10178 20156 56004

More Conditions Fewer Conditions

10-Day Weather Forecast

Almanac

Astronomy

Apr. 21, 2014 Rise Set
Actual Time 6:29 AM CDT 8:02 PM CDT
Civil Twilight 6:01 AM CDT 8:31 PM CDT
Nautical Twilight 5:26 AM CDT 9:06 PM CDT
Astronomical Twilight 4:49 AM CDT 9:42 PM CDT
Moon 1:33 AM CDT 11:57 AM CDT
Length of Visible Light 14h 30m
Length of Day
13h 32m
Tomorrow will be 2m 28s longer.
Waning Gibbous, 59% of the Moon is Illuminated
Today
Waning Gibbous
Apr 22
Last Quarter
Apr 29
New
May 6
First Quarter
May 14
Full

Today's Extremes

State Highs State Lows

Community

  • Snowy Robin
    Snowy Robin
  • Sun Pillar and Geese
    Sun Pillar and Geese
  • Showers on the Way
    Showers on the Way
  • Easter Morning Fog
    Easter Morning Fog
  • Easter Dance
    Easter Dance

WunderPhotos

Upload Photos

1,703,598 photos uploaded!

Nearby

Snow Depth

Station Depth Elevation
No new snow has been reported.

Coastal Water Temperatures

Place Temperature
No Stations Reporting

Earthquake Activity

City Distance Mag. Time & Date
No recent earthquake activity has been reported nearby.
Minimum magnitude displayed is 2.5.

Nearby Weather Stations

Station Location Temp. Dew Point Humidity Wind Precip. Elev Updated Type
Bethany, Bethany, MO 59.9 °F 58 °F 95% WSW  at  1.0 mph 0.05 in / hr 1017 ft 7:19 AM CDT Rapid Fire

Show More Stations Show Fewer Stations

What do you think?

We're not finished. Please let us know what you like, what you don't like, and what you are still missing.